TimeCDT,TemperatureF,Dew PointF,Humidity,Sea Level PressureIn,VisibilityMPH,Wind Direction,Wind SpeedMPH,Gust SpeedMPH,PrecipitationIn,Events,Conditions,WindDirDegrees,DateUTC
12:51 AM,57.9,48.9,72,30.12,10.0,North,17.3,-,N/A,,Overcast,10,2013-04-04 05:51:00
1:51 AM,57.9,48.9,72,30.10,10.0,NNE,13.8,-,N/A,,Overcast,20,2013-04-04 06:51:00
2:51 AM,57.9,48.9,72,30.09,10.0,North,9.2,-,N/A,,Overcast,360,2013-04-04 07:51:00
3:51 AM,57.9,48.9,72,30.11,10.0,NW,10.4,-,N/A,,Overcast,320,2013-04-04 08:51:00
4:51 AM,57.9,48.9,72,30.12,10.0,NW,9.2,-,N/A,,Overcast,310,2013-04-04 09:51:00
5:51 AM,57.9,48.0,70,30.12,10.0,NW,11.5,-,N/A,,Overcast,320,2013-04-04 10:51:00
6:51 AM,57.0,48.0,72,30.14,10.0,NW,13.8,-,N/A,,Overcast,320,2013-04-04 11:51:00
7:51 AM,55.9,46.9,72,30.17,10.0,NW,13.8,-,N/A,,Overcast,320,2013-04-04 12:51:00
8:51 AM,57.0,46.9,69,30.18,10.0,NNW,13.8,-,N/A,,Overcast,330,2013-04-04 13:51:00
9:51 AM,57.9,46.0,65,30.19,10.0,NNW,13.8,-,N/A,,Overcast,330,2013-04-04 14:51:00
10:51 AM,60.1,46.0,60,30.18,10.0,NNW,13.8,-,N/A,,Mostly Cloudy,340,2013-04-04 15:51:00
11:51 AM,64.0,46.0,52,30.19,10.0,NW,13.8,24.2,N/A,,Mostly Cloudy,320,2013-04-04 16:51:00
11:54 AM,64.4,46.4,52,30.19,10.0,North,15.0,23.0,N/A,,Scattered Clouds,350,2013-04-04 16:54:00
12:51 PM,70.0,45.0,41,30.16,10.0,North,17.3,26.5,N/A,,Clear,350,2013-04-04 17:51:00
1:51 PM,73.9,44.1,34,30.13,10.0,NNW,17.3,25.3,N/A,,Partly Cloudy,340,2013-04-04 18:51:00
2:51 PM,78.1,41.0,27,30.09,10.0,NNW,23.0,28.8,N/A,,Partly Cloudy,340,2013-04-04 19:51:00
3:51 PM,78.8,41.0,26,30.07,10.0,NNW,19.6,27.6,N/A,,Clear,340,2013-04-04 20:51:00
4:13 PM,80.6,41.0,24,30.07,10.0,NNW,16.1,25.3,N/A,,Partly Cloudy,340,2013-04-04 21:13:00
4:51 PM,80.6,41.0,24,30.06,10.0,North,17.3,-,N/A,,Partly Cloudy,350,2013-04-04 21:51:00
5:51 PM,78.8,41.0,26,30.05,10.0,North,15.0,20.7,N/A,,Partly Cloudy,350,2013-04-04 22:51:00
6:51 PM,75.2,42.8,31,30.06,10.0,North,18.4,-,N/A,,Partly Cloudy,360,2013-04-04 23:51:00
7:51 PM,72.0,43.0,35,30.08,10.0,North,12.7,-,N/A,,Clear,10,2013-04-05 00:51:00
8:51 PM,68.0,43.0,40,30.10,10.0,NE,12.7,-,N/A,,Clear,40,2013-04-05 01:51:00
9:51 PM,64.9,43.0,45,30.13,10.0,NE,13.8,-,N/A,,Clear,50,2013-04-05 02:51:00
10:51 PM,62.1,44.1,52,30.15,10.0,NE,16.1,-,N/A,,Clear,50,2013-04-05 03:51:00
11:51 PM,59.0,46.0,62,30.17,10.0,NE,19.6,25.3,N/A,,Clear,50,2013-04-05 04:51:00